sensor_id;sensor_type;location;lat;lon;timestamp;pressure;altitude;pressure_sealevel;temperature;humidity
4085;BME280;2057;50.858;6.572;2023-08-06T00:01:52;99179.84;;;15.98;100.00
4085;BME280;2057;50.858;6.572;2023-08-06T00:04:18;99182.34;;;15.87;100.00
4085;BME280;2057;50.858;6.572;2023-08-06T00:06:44;99189.19;;;15.87;100.00
4085;BME280;2057;50.858;6.572;2023-08-06T00:09:09;99184.06;;;15.87;100.00
4085;BME280;2057;50.858;6.572;2023-08-06T00:11:35;99181.41;;;15.80;100.00
4085;BME280;2057;50.858;6.572;2023-08-06T00:14:00;99183.94;;;15.74;100.00
4085;BME280;2057;50.858;6.572;2023-08-06T00:16:25;99182.22;;;15.72;100.00
4085;BME280;2057;50.858;6.572;2023-08-06T00:18:51;99188.16;;;15.64;100.00
4085;BME280;2057;50.858;6.572;2023-08-06T00:21:18;99178.75;;;15.65;100.00
4085;BME280;2057;50.858;6.572;2023-08-06T00:23:44;99174.41;;;15.53;100.00
4085;BME280;2057;50.858;6.572;2023-08-06T00:26:09;99176.19;;;15.60;100.00
4085;BME280;2057;50.858;6.572;2023-08-06T00:28:34;99169.34;;;15.61;100.00
4085;BME280;2057;50.858;6.572;2023-08-06T00:31:00;99167.63;;;15.58;100.00
4085;BME280;2057;50.858;6.572;2023-08-06T00:33:25;99174.50;;;15.65;100.00
4085;BME280;2057;50.858;6.572;2023-08-06T00:35:50;99173.59;;;15.57;100.00
4085;BME280;2057;50.858;6.572;2023-08-06T00:38:16;99178.69;;;15.57;100.00
4085;BME280;2057;50.858;6.572;2023-08-06T00:40:41;99171.88;;;15.53;100.00
4085;BME280;2057;50.858;6.572;2023-08-06T00:43:07;99171.00;;;15.49;100.00
4085;BME280;2057;50.858;6.572;2023-08-06T00:45:37;99169.28;;;15.50;100.00
4085;BME280;2057;50.858;6.572;2023-08-06T00:48:03;99168.34;;;15.39;100.00
4085;BME280;2057;50.858;6.572;2023-08-06T00:50:30;99167.44;;;15.35;100.00
4085;BME280;2057;50.858;6.572;2023-08-06T00:52:55;99165.03;;;15.52;100.00
4085;BME280;2057;50.858;6.572;2023-08-06T00:55:21;99169.28;;;15.50;100.00
4085;BME280;2057;50.858;6.572;2023-08-06T00:57:47;99167.56;;;15.46;100.00
4085;BME280;2057;50.858;6.572;2023-08-06T01:00:18;99169.19;;;15.41;100.00
4085;BME280;2057;50.858;6.572;2023-08-06T01:02:45;99160.72;;;15.46;100.00
4085;BME280;2057;50.858;6.572;2023-08-06T01:05:11;99155.56;;;15.39;100.00
4085;BME280;2057;50.858;6.572;2023-08-06T01:08:07;99155.56;;;15.39;100.00
4085;BME280;2057;50.858;6.572;2023-08-06T01:11:22;99156.34;;;15.30;100.00
4085;BME280;2057;50.858;6.572;2023-08-06T01:14:06;99154.63;;;15.27;100.00
4085;BME280;2057;50.858;6.572;2023-08-06T01:16:33;99160.50;;;15.17;100.00
4085;BME280;2057;50.858;6.572;2023-08-06T01:18:59;99151.16;;;15.20;100.00
4085;BME280;2057;50.858;6.572;2023-08-06T01:21:24;99154.53;;;15.18;100.00
4085;BME280;2057;50.858;6.572;2023-08-06T01:23:49;99154.63;;;15.29;100.00
4085;BME280;2057;50.858;6.572;2023-08-06T01:26:33;99154.66;;;15.35;100.00
4085;BME280;2057;50.858;6.572;2023-08-06T01:29:11;99153.81;;;15.34;100.00
4085;BME280;2057;50.858;6.572;2023-08-06T01:31:42;99158.16;;;15.45;100.00
4085;BME280;2057;50.858;6.572;2023-08-06T01:34:12;99156.44;;;15.44;100.00
4085;BME280;2057;50.858;6.572;2023-08-06T01:36:39;99153.06;;;15.48;100.00
4085;BME280;2057;50.858;6.572;2023-08-06T01:39:05;99148.81;;;15.48;100.00
4085;BME280;2057;50.858;6.572;2023-08-06T01:41:31;99151.41;;;15.53;100.00
4085;BME280;2057;50.858;6.572;2023-08-06T01:43:56;99149.72;;;15.55;100.00
4085;BME280;2057;50.858;6.572;2023-08-06T01:46:21;99148.88;;;15.61;100.00
4085;BME280;2057;50.858;6.572;2023-08-06T01:48:47;99141.19;;;15.61;100.00
4085;BME280;2057;50.858;6.572;2023-08-06T01:51:12;99136.13;;;15.62;100.00
4085;BME280;2057;50.858;6.572;2023-08-06T01:53:38;99136.13;;;15.62;100.00
4085;BME280;2057;50.858;6.572;2023-08-06T01:56:03;99136.97;;;15.63;100.00
4085;BME280;2057;50.858;6.572;2023-08-06T01:58:28;99132.69;;;15.60;100.00
4085;BME280;2057;50.858;6.572;2023-08-06T02:00:54;99133.53;;;15.59;100.00
4085;BME280;2057;50.858;6.572;2023-08-06T02:03:19;99133.56;;;15.62;100.00
4085;BME280;2057;50.858;6.572;2023-08-06T02:05:44;99132.69;;;15.60;100.00
4085;BME280;2057;50.858;6.572;2023-08-06T02:08:10;99127.53;;;15.56;100.00
4085;BME280;2057;50.858;6.572;2023-08-06T02:10:36;99126.69;;;15.55;100.00
4085;BME280;2057;50.858;6.572;2023-08-06T02:13:01;99120.69;;;15.50;100.00
4085;BME280;2057;50.858;6.572;2023-08-06T02:15:26;99123.28;;;15.56;100.00
4085;BME280;2057;50.858;6.572;2023-08-06T02:17:52;99119.84;;;15.49;100.00
4085;BME280;2057;50.858;6.572;2023-08-06T02:20:17;99117.31;;;15.57;100.00
4085;BME280;2057;50.858;6.572;2023-08-06T02:22:43;99116.47;;;15.58;100.00
4085;BME280;2057;50.858;6.572;2023-08-06T02:25:08;99115.63;;;15.61;100.00
4085;BME280;2057;50.858;6.572;2023-08-06T02:27:33;99112.22;;;15.59;100.00
4085;BME280;2057;50.858;6.572;2023-08-06T02:29:59;99111.28;;;15.46;100.00
4085;BME280;2057;50.858;6.572;2023-08-06T02:32:24;99103.63;;;15.46;100.00
4085;BME280;2057;50.858;6.572;2023-08-06T02:34:52;99104.44;;;15.46;100.00
4085;BME280;2057;50.858;6.572;2023-08-06T02:37:17;99105.31;;;15.47;100.00
4085;BME280;2057;50.858;6.572;2023-08-06T02:39:42;99095.16;;;15.56;100.00
4085;BME280;2057;50.858;6.572;2023-08-06T02:42:08;99092.63;;;15.64;100.00
4085;BME280;2057;50.858;6.572;2023-08-06T02:44:34;99091.75;;;15.62;100.00
4085;BME280;2057;50.858;6.572;2023-08-06T02:47:00;99086.63;;;15.59;100.00
4085;BME280;2057;50.858;6.572;2023-08-06T02:49:25;99090.84;;;15.50;100.00
4085;BME280;2057;50.858;6.572;2023-08-06T02:51:53;99094.22;;;15.46;100.00
4085;BME280;2057;50.858;6.572;2023-08-06T02:54:19;99083.16;;;15.47;100.00
4085;BME280;2057;50.858;6.572;2023-08-06T02:56:46;99084.88;;;15.55;100.00
4085;BME280;2057;50.858;6.572;2023-08-06T02:59:13;99079.78;;;15.51;100.00
4085;BME280;2057;50.858;6.572;2023-08-06T03:01:38;99084.84;;;15.45;100.00
4085;BME280;2057;50.858;6.572;2023-08-06T03:04:04;99086.53;;;15.48;100.00
4085;BME280;2057;50.858;6.572;2023-08-06T03:06:30;99090.84;;;15.52;100.00
4085;BME280;2057;50.858;6.572;2023-08-06T03:08:55;99086.53;;;15.42;100.00
4085;BME280;2057;50.858;6.572;2023-08-06T03:11:20;99079.75;;;15.50;100.00
4085;BME280;2057;50.858;6.572;2023-08-06T03:13:47;99076.31;;;15.46;100.00
4085;BME280;2057;50.858;6.572;2023-08-06T03:16:12;99078.00;;;15.43;100.00
4085;BME280;2057;50.858;6.572;2023-08-06T03:18:37;99077.19;;;15.47;100.00
4085;BME280;2057;50.858;6.572;2023-08-06T03:21:03;99078.03;;;15.47;100.00
4085;BME280;2057;50.858;6.572;2023-08-06T03:23:28;99072.84;;;15.40;100.00
4085;BME280;2057;50.858;6.572;2023-08-06T03:25:54;99068.53;;;15.25;100.00
4085;BME280;2057;50.858;6.572;2023-08-06T03:28:19;99069.38;;;15.24;100.00
4085;BME280;2057;50.858;6.572;2023-08-06T03:30:44;99071.13;;;15.32;100.00
4085;BME280;2057;50.858;6.572;2023-08-06T03:33:09;99071.94;;;15.31;100.00
4085;BME280;2057;50.858;6.572;2023-08-06T03:35:35;99072.84;;;15.36;100.00
4085;BME280;2057;50.858;6.572;2023-08-06T03:38:00;99061.69;;;15.27;100.00
4085;BME280;2057;50.858;6.572;2023-08-06T03:40:30;99064.22;;;15.19;100.00
4085;BME280;2057;50.858;6.572;2023-08-06T03:42:55;99062.56;;;15.26;100.00
4085;BME280;2057;50.858;6.572;2023-08-06T03:45:21;99066.75;;;15.17;100.00
4085;BME280;2057;50.858;6.572;2023-08-06T03:47:49;99064.25;;;15.24;100.00
4085;BME280;2057;50.858;6.572;2023-08-06T03:50:17;99066.75;;;15.13;100.00
4085;BME280;2057;50.858;6.572;2023-08-06T03:52:44;99064.13;;;15.06;100.00
4085;BME280;2057;50.858;6.572;2023-08-06T03:55:10;99065.78;;;15.04;100.00
4085;BME280;2057;50.858;6.572;2023-08-06T03:57:35;99076.03;;;15.04;100.00
4085;BME280;2057;50.858;6.572;2023-08-06T04:00:03;99069.34;;;15.19;100.00
4085;BME280;2057;50.858;6.572;2023-08-06T04:02:29;99067.59;;;15.12;100.00
4085;BME280;2057;50.858;6.572;2023-08-06T04:04:54;99059.88;;;15.10;100.00
4085;BME280;2057;50.858;6.572;2023-08-06T04:07:19;99063.28;;;15.08;100.00
4085;BME280;2057;50.858;6.572;2023-08-06T04:09:58;99063.34;;;15.17;100.00
4085;BME280;2057;50.858;6.572;2023-08-06T04:12:24;99068.47;;;15.18;100.00
4085;BME280;2057;50.858;6.572;2023-08-06T04:14:50;99071.84;;;15.17;100.00
4085;BME280;2057;50.858;6.572;2023-08-06T04:17:17;99065.88;;;15.14;100.00
4085;BME280;2057;50.858;6.572;2023-08-06T04:19:49;99074.31;;;15.02;100.00
4085;BME280;2057;50.858;6.572;2023-08-06T04:22:17;99068.41;;;15.11;100.00
4085;BME280;2057;50.858;6.572;2023-08-06T04:24:45;99069.34;;;15.19;100.00
4085;BME280;2057;50.858;6.572;2023-08-06T04:27:11;99074.44;;;15.19;100.00
4085;BME280;2057;50.858;6.572;2023-08-06T04:29:37;99071.06;;;15.21;100.00
4085;BME280;2057;50.858;6.572;2023-08-06T04:32:07;99072.75;;;15.23;100.00
4085;BME280;2057;50.858;6.572;2023-08-06T04:34:35;99071.00;;;15.17;100.00
4085;BME280;2057;50.858;6.572;2023-08-06T04:37:01;99068.47;;;15.18;100.00
4085;BME280;2057;50.858;6.572;2023-08-06T04:39:27;99070.22;;;15.21;100.00
4085;BME280;2057;50.858;6.572;2023-08-06T04:41:52;99068.41;;;15.11;100.00
4085;BME280;2057;50.858;6.572;2023-08-06T04:44:18;99072.66;;;15.09;100.00
4085;BME280;2057;50.858;6.572;2023-08-06T04:46:43;99076.97;;;15.14;100.00
4085;BME280;2057;50.858;6.572;2023-08-06T04:49:09;99080.44;;;15.24;100.00
4085;BME280;2057;50.858;6.572;2023-08-06T04:51:35;99076.16;;;15.20;100.00
4085;BME280;2057;50.858;6.572;2023-08-06T04:54:00;99083.72;;;15.08;100.00
4085;BME280;2057;50.858;6.572;2023-08-06T04:56:29;99082.09;;;15.17;100.00
4085;BME280;2057;50.858;6.572;2023-08-06T04:58:54;99077.81;;;15.15;100.00
4085;BME280;2057;50.858;6.572;2023-08-06T05:01:19;99079.56;;;15.19;100.00
4085;BME280;2057;50.858;6.572;2023-08-06T05:03:46;99081.28;;;15.20;100.00
4085;BME280;2057;50.858;6.572;2023-08-06T05:06:11;99078.69;;;15.17;100.00
4085;BME280;2057;50.858;6.572;2023-08-06T05:08:36;99079.50;;;15.08;100.00
4085;BME280;2057;50.858;6.572;2023-08-06T05:11:02;99084.59;;;15.10;100.00
4085;BME280;2057;50.858;6.572;2023-08-06T05:13:27;99078.63;;;15.09;100.00
4085;BME280;2057;50.858;6.572;2023-08-06T05:15:55;99080.41;;;15.18;100.00
4085;BME280;2057;50.858;6.572;2023-08-06T05:18:20;99081.16;;;15.08;100.00
4085;BME280;2057;50.858;6.572;2023-08-06T05:20:46;99085.50;;;15.16;100.00
4085;BME280;2057;50.858;6.572;2023-08-06T05:23:11;99087.19;;;15.14;100.00
4085;BME280;2057;50.858;6.572;2023-08-06T05:25:38;99081.25;;;15.15;100.00
4085;BME280;2057;50.858;6.572;2023-08-06T05:28:04;99086.31;;;15.12;100.00
4085;BME280;2057;50.858;6.572;2023-08-06T05:30:29;99086.25;;;15.01;100.00
4085;BME280;2057;50.858;6.572;2023-08-06T05:32:55;99087.03;;;14.94;100.00
4085;BME280;2057;50.858;6.572;2023-08-06T05:35:21;99092.22;;;15.03;100.00
4085;BME280;2057;50.858;6.572;2023-08-06T05:37:46;99088.75;;;14.95;100.00
4085;BME280;2057;50.858;6.572;2023-08-06T05:40:12;99095.47;;;14.84;100.00
4085;BME280;2057;50.858;6.572;2023-08-06T05:42:37;99102.38;;;14.94;100.00
4085;BME280;2057;50.858;6.572;2023-08-06T05:45:02;99098.75;;;14.72;100.00
4085;BME280;2057;50.858;6.572;2023-08-06T05:47:28;99104.72;;;14.69;100.00
4085;BME280;2057;50.858;6.572;2023-08-06T05:49:53;99108.00;;;14.62;100.00
4085;BME280;2057;50.858;6.572;2023-08-06T05:52:19;99107.97;;;14.59;100.00
4085;BME280;2057;50.858;6.572;2023-08-06T05:54:44;99108.75;;;14.53;100.00
4085;BME280;2057;50.858;6.572;2023-08-06T05:57:09;99110.69;;;14.73;100.00
4085;BME280;2057;50.858;6.572;2023-08-06T05:59:35;99111.56;;;14.75;100.00
4085;BME280;2057;50.858;6.572;2023-08-06T06:02:00;99105.59;;;14.76;100.00
4085;BME280;2057;50.858;6.572;2023-08-06T06:04:25;99099.56;;;14.66;100.00
4085;BME280;2057;50.858;6.572;2023-08-06T06:06:51;99108.19;;;14.78;100.00
4085;BME280;2057;50.858;6.572;2023-08-06T06:09:16;99117.63;;;14.88;100.00
4085;BME280;2057;50.858;6.572;2023-08-06T06:11:41;99111.66;;;14.86;100.00
4085;BME280;2057;50.858;6.572;2023-08-06T06:14:07;99119.34;;;14.86;100.00
4085;BME280;2057;50.858;6.572;2023-08-06T06:16:34;99123.53;;;14.81;100.00
4085;BME280;2057;50.858;6.572;2023-08-06T06:19:00;99122.72;;;14.85;100.00
4085;BME280;2057;50.858;6.572;2023-08-06T06:21:25;99128.63;;;14.81;100.00
4085;BME280;2057;50.858;6.572;2023-08-06T06:23:50;99129.53;;;14.84;100.00
4085;BME280;2057;50.858;6.572;2023-08-06T06:26:19;99132.16;;;14.90;100.00
4085;BME280;2057;50.858;6.572;2023-08-06T06:28:46;99137.13;;;14.78;100.00
4085;BME280;2057;50.858;6.572;2023-08-06T06:31:11;99138.09;;;14.89;100.00
4085;BME280;2057;50.858;6.572;2023-08-06T06:33:37;99138.03;;;14.83;100.00
4085;BME280;2057;50.858;6.572;2023-08-06T06:36:02;99140.66;;;14.91;100.00
4085;BME280;2057;50.858;6.572;2023-08-06T06:38:33;99143.31;;;14.99;100.00
4085;BME280;2057;50.858;6.572;2023-08-06T06:40:58;99145.88;;;15.00;100.00
4085;BME280;2057;50.858;6.572;2023-08-06T06:43:24;99142.47;;;15.00;100.00
4085;BME280;2057;50.858;6.572;2023-08-06T06:46:08;99144.06;;;14.90;100.00
4085;BME280;2057;50.858;6.572;2023-08-06T06:48:33;99144.06;;;14.88;100.00
4085;BME280;2057;50.858;6.572;2023-08-06T06:50:59;99143.16;;;14.85;100.00
4085;BME280;2057;50.858;6.572;2023-08-06T06:53:24;99144.00;;;14.84;100.00
4085;BME280;2057;50.858;6.572;2023-08-06T06:56:02;99144.06;;;14.90;100.00
4085;BME280;2057;50.858;6.572;2023-08-06T06:58:27;99151.63;;;14.81;100.00
4085;BME280;2057;50.858;6.572;2023-08-06T07:00:53;99152.66;;;14.98;100.00
4085;BME280;2057;50.858;6.572;2023-08-06T07:03:19;99149.25;;;14.99;100.00
4085;BME280;2057;50.858;6.572;2023-08-06T07:05:45;99154.28;;;14.88;100.00
4085;BME280;2057;50.858;6.572;2023-08-06T07:08:10;99158.59;;;14.96;100.00
4085;BME280;2057;50.858;6.572;2023-08-06T07:10:36;99157.81;;;15.04;100.00
4085;BME280;2057;50.858;6.572;2023-08-06T07:13:02;99153.53;;;15.02;100.00
4085;BME280;2057;50.858;6.572;2023-08-06T07:15:27;99157.81;;;15.04;100.00
4085;BME280;2057;50.858;6.572;2023-08-06T07:17:52;99161.28;;;15.08;100.00
4085;BME280;2057;50.858;6.572;2023-08-06T07:20:18;99156.88;;;14.95;100.00
4085;BME280;2057;50.858;6.572;2023-08-06T07:22:44;99162.13;;;15.07;100.00
4085;BME280;2057;50.858;6.572;2023-08-06T07:25:09;99161.22;;;15.02;100.00
4085;BME280;2057;50.858;6.572;2023-08-06T07:27:34;99167.31;;;15.16;100.00
4085;BME280;2057;50.858;6.572;2023-08-06T07:30:03;99166.44;;;15.14;100.00
4085;BME280;2057;50.858;6.572;2023-08-06T07:32:28;99174.16;;;15.22;100.00
4085;BME280;2057;50.858;6.572;2023-08-06T07:34:53;99170.88;;;15.34;100.00
4085;BME280;2057;50.858;6.572;2023-08-06T07:37:24;99183.53;;;15.21;100.00
4085;BME280;2057;50.858;6.572;2023-08-06T07:39:50;99173.31;;;15.20;100.00
4085;BME280;2057;50.858;6.572;2023-08-06T07:42:15;99176.00;;;15.35;100.00
4085;BME280;2057;50.858;6.572;2023-08-06T07:44:40;99178.50;;;15.29;100.00
4085;BME280;2057;50.858;6.572;2023-08-06T07:47:06;99182.75;;;15.26;100.00
4085;BME280;2057;50.858;6.572;2023-08-06T07:49:31;99176.78;;;15.31;100.00
4085;BME280;2057;50.858;6.572;2023-08-06T07:51:56;99188.69;;;15.25;100.00
4085;BME280;2057;50.858;6.572;2023-08-06T07:54:22;99187.06;;;15.33;100.00
4085;BME280;2057;50.858;6.572;2023-08-06T07:56:49;99187.84;;;15.26;100.00
4085;BME280;2057;50.858;6.572;2023-08-06T07:59:14;99191.25;;;15.28;100.00
4085;BME280;2057;50.858;6.572;2023-08-06T08:01:40;99194.66;;;15.25;100.00
4085;BME280;2057;50.858;6.572;2023-08-06T08:04:05;99193.81;;;15.26;100.00
4085;BME280;2057;50.858;6.572;2023-08-06T08:06:30;99197.25;;;15.30;100.00
4085;BME280;2057;50.858;6.572;2023-08-06T08:08:56;99199.88;;;15.39;100.00
4085;BME280;2057;50.858;6.572;2023-08-06T08:11:21;99203.28;;;15.38;100.00
4085;BME280;2057;50.858;6.572;2023-08-06T08:13:46;99203.25;;;15.33;100.00
4085;BME280;2057;50.858;6.572;2023-08-06T08:16:12;99211.84;;;15.42;100.00
4085;BME280;2057;50.858;6.572;2023-08-06T08:18:39;99209.41;;;15.57;100.00
4085;BME280;2057;50.858;6.572;2023-08-06T08:21:05;99216.22;;;15.55;100.00
4085;BME280;2057;50.858;6.572;2023-08-06T08:23:30;99217.84;;;15.44;100.00
4085;BME280;2057;50.858;6.572;2023-08-06T08:25:56;99214.38;;;15.39;100.00
4085;BME280;2057;50.858;6.572;2023-08-06T08:28:22;99229.69;;;15.35;100.00
4085;BME280;2057;50.858;6.572;2023-08-06T08:30:47;99226.13;;;15.18;100.00
4085;BME280;2057;50.858;6.572;2023-08-06T08:33:13;99228.81;;;15.33;100.00
4085;BME280;2057;50.858;6.572;2023-08-06T08:35:38;99228.69;;;15.16;100.00
4085;BME280;2057;50.858;6.572;2023-08-06T08:38:03;99228.53;;;15.02;100.00
4085;BME280;2057;50.858;6.572;2023-08-06T08:40:32;99243.03;;;15.06;100.00
4085;BME280;2057;50.858;6.572;2023-08-06T08:43:02;99233.75;;;15.15;100.00
4085;BME280;2057;50.858;6.572;2023-08-06T08:45:29;99235.38;;;15.05;100.00
4085;BME280;2057;50.858;6.572;2023-08-06T08:47:55;99235.47;;;15.13;100.00
4085;BME280;2057;50.858;6.572;2023-08-06T08:50:21;99234.63;;;15.17;100.00
4085;BME280;2057;50.858;6.572;2023-08-06T08:52:49;99234.47;;;15.01;100.00
4085;BME280;2057;50.858;6.572;2023-08-06T08:55:15;99247.22;;;14.98;100.00
4085;BME280;2057;50.858;6.572;2023-08-06T08:57:41;99237.78;;;14.93;100.00
4085;BME280;2057;50.858;6.572;2023-08-06T09:00:07;99242.81;;;14.85;100.00
4085;BME280;2057;50.858;6.572;2023-08-06T09:02:33;99236.78;;;14.80;100.00
4085;BME280;2057;50.858;6.572;2023-08-06T09:05:00;99242.09;;;14.95;100.00
4085;BME280;2057;50.858;6.572;2023-08-06T09:07:35;99248.00;;;14.91;100.00
4085;BME280;2057;50.858;6.572;2023-08-06T09:10:03;99266.72;;;14.90;100.00
4085;BME280;2057;50.858;6.572;2023-08-06T09:12:30;99281.69;;;14.62;100.00
4085;BME280;2057;50.858;6.572;2023-08-06T09:14:56;99295.78;;;14.34;100.00
4085;BME280;2057;50.858;6.572;2023-08-06T09:17:21;99291.41;;;14.25;100.00
4085;BME280;2057;50.858;6.572;2023-08-06T09:19:47;99301.38;;;14.09;100.00
4085;BME280;2057;50.858;6.572;2023-08-06T09:22:13;99311.19;;;13.83;100.00
4085;BME280;2057;50.858;6.572;2023-08-06T09:24:42;99315.53;;;13.89;100.00
4085;BME280;2057;50.858;6.572;2023-08-06T09:27:14;99325.50;;;13.76;100.00
4085;BME280;2057;50.858;6.572;2023-08-06T09:29:44;99323.59;;;13.63;100.00
4085;BME280;2057;50.858;6.572;2023-08-06T09:32:11;99347.38;;;13.62;100.00
4085;BME280;2057;50.858;6.572;2023-08-06T09:34:39;99349.94;;;13.62;100.00
4085;BME280;2057;50.858;6.572;2023-08-06T09:37:04;99354.94;;;13.56;100.00
4085;BME280;2057;50.858;6.572;2023-08-06T09:39:30;99351.47;;;13.54;100.00
4085;BME280;2057;50.858;6.572;2023-08-06T09:41:57;99364.91;;;13.45;100.00
4085;BME280;2057;50.858;6.572;2023-08-06T09:44:23;99363.25;;;13.47;100.00
4085;BME280;2057;50.858;6.572;2023-08-06T09:46:59;99381.25;;;13.55;100.00
4085;BME280;2057;50.858;6.572;2023-08-06T09:49:26;99381.97;;;13.47;100.00
4085;BME280;2057;50.858;6.572;2023-08-06T09:51:53;99400.50;;;13.40;100.00
4085;BME280;2057;50.858;6.572;2023-08-06T09:54:24;99393.34;;;13.24;100.00
4085;BME280;2057;50.858;6.572;2023-08-06T09:56:49;99424.00;;;13.27;100.00
4085;BME280;2057;50.858;6.572;2023-08-06T09:59:18;99411.16;;;13.21;100.00
4085;BME280;2057;50.858;6.572;2023-08-06T10:01:45;99415.41;;;13.22;100.00
4085;BME280;2057;50.858;6.572;2023-08-06T10:04:13;99420.75;;;13.32;100.00
4085;BME280;2057;50.858;6.572;2023-08-06T10:06:42;99424.00;;;13.25;100.00
4085;BME280;2057;50.858;6.572;2023-08-06T10:09:07;99429.00;;;13.21;100.00
4085;BME280;2057;50.858;6.572;2023-08-06T10:11:38;99428.91;;;13.16;100.00
4085;BME280;2057;50.858;6.572;2023-08-06T10:14:11;99428.22;;;13.25;100.00
4085;BME280;2057;50.858;6.572;2023-08-06T10:16:37;99429.75;;;13.16;100.00
4085;BME280;2057;50.858;6.572;2023-08-06T10:19:04;99438.16;;;13.12;100.00
4085;BME280;2057;50.858;6.572;2023-08-06T10:21:38;99435.56;;;13.11;100.00
4085;BME280;2057;50.858;6.572;2023-08-06T10:24:06;99442.44;;;13.13;100.00
4085;BME280;2057;50.858;6.572;2023-08-06T10:26:34;99439.63;;;13.02;100.00
4085;BME280;2057;50.858;6.572;2023-08-06T10:29:00;99438.06;;;13.08;100.00
4085;BME280;2057;50.858;6.572;2023-08-06T10:31:53;99439.81;;;13.10;100.00
4085;BME280;2057;50.858;6.572;2023-08-06T10:34:20;99444.00;;;13.08;100.00
4085;BME280;2057;50.858;6.572;2023-08-06T10:36:45;99453.31;;;13.06;100.00
4085;BME280;2057;50.858;6.572;2023-08-06T10:39:13;99459.41;;;13.14;100.00
4085;BME280;2057;50.858;6.572;2023-08-06T10:41:44;99461.34;;;13.25;100.00
4085;BME280;2057;50.858;6.572;2023-08-06T10:44:10;99458.59;;;13.15;100.00
4085;BME280;2057;50.858;6.572;2023-08-06T10:46:39;99458.78;;;13.25;100.00
4085;BME280;2057;50.858;6.572;2023-08-06T10:49:04;99461.41;;;13.28;100.00
4085;BME280;2057;50.858;6.572;2023-08-06T10:51:32;99476.75;;;13.31;100.00
4085;BME280;2057;50.858;6.572;2023-08-06T10:53:57;99469.22;;;13.36;100.00
4085;BME280;2057;50.858;6.572;2023-08-06T10:56:24;99481.13;;;13.37;100.00
4085;BME280;2057;50.858;6.572;2023-08-06T10:58:56;99473.53;;;13.38;100.00
4085;BME280;2057;50.858;6.572;2023-08-06T11:01:28;99485.72;;;13.50;100.00
4085;BME280;2057;50.858;6.572;2023-08-06T11:03:54;99478.19;;;13.56;100.00
4085;BME280;2057;50.858;6.572;2023-08-06T11:06:21;99479.97;;;13.60;100.00
4085;BME280;2057;50.858;6.572;2023-08-06T11:08:49;99484.47;;;13.72;100.00
4085;BME280;2057;50.858;6.572;2023-08-06T11:11:16;99477.63;;;13.71;100.00
4085;BME280;2057;50.858;6.572;2023-08-06T11:13:45;99486.13;;;13.72;100.00
4085;BME280;2057;50.858;6.572;2023-08-06T11:16:13;99486.22;;;13.76;100.00
4085;BME280;2057;50.858;6.572;2023-08-06T11:18:40;99481.94;;;13.75;100.00
4085;BME280;2057;50.858;6.572;2023-08-06T11:21:05;99482.84;;;13.77;100.00
4085;BME280;2057;50.858;6.572;2023-08-06T11:23:35;99490.69;;;13.87;100.00
4085;BME280;2057;50.858;6.572;2023-08-06T11:26:00;99492.22;;;13.78;100.00
4085;BME280;2057;50.858;6.572;2023-08-06T11:28:26;99505.16;;;13.88;100.00
4085;BME280;2057;50.858;6.572;2023-08-06T11:30:52;99503.50;;;13.90;100.00
4085;BME280;2057;50.858;6.572;2023-08-06T11:33:24;99501.16;;;14.02;100.00
4085;BME280;2057;50.858;6.572;2023-08-06T11:35:55;99498.59;;;14.01;100.00
4085;BME280;2057;50.858;6.572;2023-08-06T11:38:21;99510.44;;;13.97;100.00
4085;BME280;2057;50.858;6.572;2023-08-06T11:40:50;99518.09;;;13.97;100.00
4085;BME280;2057;50.858;6.572;2023-08-06T11:43:18;99514.94;;;14.10;100.00
4085;BME280;2057;50.858;6.572;2023-08-06T11:45:44;99513.31;;;14.14;100.00
4085;BME280;2057;50.858;6.572;2023-08-06T11:48:09;99515.84;;;14.12;100.00
4085;BME280;2057;50.858;6.572;2023-08-06T11:50:38;99516.00;;;14.20;100.00
4085;BME280;2057;50.858;6.572;2023-08-06T11:53:04;99523.59;;;14.19;100.00
4085;BME280;2057;50.858;6.572;2023-08-06T11:55:30;99521.84;;;14.16;100.00
4085;BME280;2057;50.858;6.572;2023-08-06T11:57:56;99519.50;;;14.27;100.00
4085;BME280;2057;50.858;6.572;2023-08-06T12:00:24;99518.00;;;14.38;100.00
4085;BME280;2057;50.858;6.572;2023-08-06T12:02:50;99524.91;;;14.42;100.00
4085;BME280;2057;50.858;6.572;2023-08-06T12:05:23;99515.59;;;14.46;100.00
4085;BME280;2057;50.858;6.572;2023-08-06T12:07:54;99525.06;;;14.52;100.00
4085;BME280;2057;50.858;6.572;2023-08-06T12:10:28;99524.06;;;14.43;100.00
4085;BME280;2057;50.858;6.572;2023-08-06T12:12:56;99518.25;;;14.52;100.00
4085;BME280;2057;50.858;6.572;2023-08-06T12:15:22;99519.91;;;14.50;100.00
4085;BME280;2057;50.858;6.572;2023-08-06T12:18:04;99519.97;;;14.55;100.00
4085;BME280;2057;50.858;6.572;2023-08-06T12:20:31;99520.06;;;14.59;100.00
4085;BME280;2057;50.858;6.572;2023-08-06T12:22:56;99506.44;;;14.59;100.00
4085;BME280;2057;50.858;6.572;2023-08-06T12:25:22;99528.72;;;14.66;100.00
4085;BME280;2057;50.858;6.572;2023-08-06T12:27:48;99518.56;;;14.69;100.00
4085;BME280;2057;50.858;6.572;2023-08-06T12:30:14;99534.88;;;14.78;100.00
4085;BME280;2057;50.858;6.572;2023-08-06T12:32:39;99530.38;;;14.66;100.00
4085;BME280;2057;50.858;6.572;2023-08-06T12:35:09;99526.81;;;14.57;100.00
4085;BME280;2057;50.858;6.572;2023-08-06T12:37:34;99521.78;;;14.59;100.00
4085;BME280;2057;50.858;6.572;2023-08-06T12:40:00;99541.91;;;14.42;100.00
4085;BME280;2057;50.858;6.572;2023-08-06T12:42:25;99537.03;;;14.56;100.00
4085;BME280;2057;50.858;6.572;2023-08-06T12:44:51;99540.50;;;14.59;100.00
4085;BME280;2057;50.858;6.572;2023-08-06T12:47:17;99548.97;;;14.57;100.00
4085;BME280;2057;50.858;6.572;2023-08-06T12:49:43;99554.94;;;14.57;100.00
4085;BME280;2057;50.858;6.572;2023-08-06T12:52:14;99552.53;;;14.65;100.00
4085;BME280;2057;50.858;6.572;2023-08-06T12:54:42;99556.56;;;14.54;100.00
4085;BME280;2057;50.858;6.572;2023-08-06T12:57:08;99564.41;;;14.63;100.00
4085;BME280;2057;50.858;6.572;2023-08-06T12:59:33;99561.69;;;14.54;100.00
4085;BME280;2057;50.858;6.572;2023-08-06T13:01:59;99571.91;;;14.54;100.00
4085;BME280;2057;50.858;6.572;2023-08-06T13:04:25;99565.28;;;14.64;100.00
4085;BME280;2057;50.858;6.572;2023-08-06T13:06:50;99570.66;;;14.78;100.00
4085;BME280;2057;50.858;6.572;2023-08-06T13:09:16;99555.25;;;14.73;100.00